KNOW

Details ICAO KNOW (NOW)
Name PORT ANGELES CGAS
Region United States
Timezone Unknown
Plans Departing 9
Arriving 19
Stats Elevation 13 ft / 4 m (AMSL)
Location 48.141300° -123.414000°
Runways 1
Magnetic Variation 15.919° E
Sunrise 2018-10-20 14:41:48 UTC / 2018-10-20 14:41:48 Local
Sunset 2018-10-21 01:17:18 UTC / 2018-10-21 01:17:18 Local
Advertisement - Login to hide

Runways

ID Width Length Bearing (true/mag) Surface Threshold Overrun Markings Lighting
07 151 ft / 46 m 4,488 ft / 1,368 m 93.55° / 77.64° ASPHALT 0 ft / 0 m 0 ft / 0 m APP EDGE THRESHOLD
25 151 ft / 46 m 4,488 ft / 1,368 m 273.57° / 257.65° ASPHALT 0 ft / 0 m 0 ft / 0 m APP EDGE THRESHOLD

Map

Weather


0- 5 10 15 20 25 30 35+ Temperature / °C

Clouds and Precipitation
Forecast for 2018-10-21 00:00 UTC. Updated 34 minutes ago

Ground ~20,000 ft ~40,000 ft Winds

METAR

KNOW 202150Z AUTO 13003KT 10SM CLR 14/09 A3016 RMK AO2 T01390090

TAF

Not found

Frequencies

Unicom 122.98 MHz CTAF
Approach 118.20 MHz WHIDBEY APP
Warning: Do not use this data for real-world aviation or navigation. No guarantee of current accuracy is given.